createdAt,value
2023-04-02T00:00:28.136Z,9.72
2023-04-02T00:02:55.593Z,9.72
2023-04-02T00:05:31.444Z,9.70
2023-04-02T00:08:10.433Z,9.63
2023-04-02T00:10:48.902Z,9.62
2023-04-02T00:13:18.654Z,9.55
2023-04-02T00:15:54.431Z,9.61
2023-04-02T00:18:22.366Z,9.59
2023-04-02T00:20:54.014Z,9.55
2023-04-02T00:23:20.972Z,9.57
2023-04-02T00:25:47.717Z,9.62
2023-04-02T00:28:20.654Z,9.60
2023-04-02T00:30:59.481Z,9.60
2023-04-02T00:33:30.480Z,9.50
2023-04-02T00:35:57.605Z,9.52
2023-04-02T00:38:28.336Z,9.49
2023-04-02T00:40:58.538Z,9.47
2023-04-02T00:43:30.705Z,9.41
2023-04-02T00:46:01.558Z,9.41
2023-04-02T00:48:52.280Z,9.37
2023-04-02T00:51:28.132Z,9.36
2023-04-02T00:53:58.032Z,9.28
2023-04-02T00:56:41.502Z,9.21
2023-04-02T00:59:21.004Z,9.26
2023-04-02T01:01:54.772Z,9.21
2023-04-02T01:04:36.566Z,9.22
2023-04-02T01:07:07.135Z,9.20
2023-04-02T01:10:03.465Z,9.20
2023-04-02T01:12:37.544Z,9.18
2023-04-02T01:15:04.437Z,9.21
2023-04-02T01:18:02.766Z,9.28
2023-04-02T01:20:38.660Z,9.32
2023-04-02T01:23:23.234Z,9.32
2023-04-02T01:26:15.093Z,9.33
2023-04-02T01:29:02.302Z,9.22
2023-04-02T01:31:30.756Z,9.25
2023-04-02T01:33:57.822Z,9.22
2023-04-02T01:36:43.569Z,9.27
2023-04-02T01:39:37.881Z,9.24
2023-04-02T01:42:38.649Z,9.21
2023-04-02T01:45:11.107Z,9.20
2023-04-02T01:47:39.590Z,9.17
2023-04-02T01:50:22.033Z,9.16
2023-04-02T01:52:52.397Z,9.12
2023-04-02T01:55:29.260Z,9.12
2023-04-02T01:57:57.487Z,9.14
2023-04-02T02:00:25.819Z,9.17
2023-04-02T02:02:56.150Z,9.17
2023-04-02T02:05:23.816Z,9.20
2023-04-02T02:07:54.647Z,9.23
2023-04-02T02:10:33.078Z,9.24
2023-04-02T02:13:00.568Z,9.20
2023-04-02T02:15:28.676Z,9.26
2023-04-02T02:17:59.513Z,9.23
2023-04-02T02:20:28.114Z,9.26
2023-04-02T02:22:56.722Z,9.21
2023-04-02T02:25:31.803Z,9.29
2023-04-02T02:28:01.163Z,9.26
2023-04-02T02:30:37.969Z,9.29
2023-04-02T02:33:15.356Z,9.29
2023-04-02T02:36:28.149Z,9.54
2023-04-02T02:38:57.228Z,9.85
2023-04-02T02:41:44.902Z,10.05
2023-04-02T02:44:19.573Z,10.18
2023-04-02T02:47:06.964Z,10.22
2023-04-02T02:49:39.487Z,10.26
2023-04-02T02:52:16.245Z,10.27
2023-04-02T02:55:11.039Z,10.25
2023-04-02T02:58:18.181Z,10.26
2023-04-02T03:01:00.566Z,10.33
2023-04-02T03:03:35.060Z,10.36
2023-04-02T03:06:08.492Z,10.29
2023-04-02T03:08:44.924Z,10.32
2023-04-02T03:11:26.548Z,10.31
2023-04-02T03:14:02.892Z,10.30
2023-04-02T03:16:45.804Z,10.26
2023-04-02T03:19:44.123Z,10.25
2023-04-02T03:22:27.135Z,10.22
2023-04-02T03:25:01.353Z,10.21
2023-04-02T03:27:36.521Z,10.31
2023-04-02T03:30:38.348Z,10.32
2023-04-02T03:33:17.516Z,10.26
2023-04-02T03:36:03.772Z,10.27
2023-04-02T03:38:43.620Z,10.20
2023-04-02T03:41:22.873Z,10.16
2023-04-02T03:43:58.729Z,10.15
2023-04-02T03:46:35.506Z,10.09
2023-04-02T03:49:14.641Z,9.99
2023-04-02T03:52:09.669Z,9.86
2023-04-02T03:54:38.517Z,9.79
2023-04-02T03:57:13.592Z,9.74
2023-04-02T04:00:16.468Z,9.74
2023-04-02T04:03:06.228Z,9.67
2023-04-02T04:05:38.499Z,9.62
2023-04-02T04:08:13.971Z,9.59
2023-04-02T04:10:43.417Z,9.54
2023-04-02T04:13:17.861Z,9.48
2023-04-02T04:16:02.865Z,9.42
2023-04-02T04:18:42.324Z,9.32
2023-04-02T04:21:29.926Z,9.24
2023-04-02T04:24:04.280Z,9.26
2023-04-02T04:26:41.286Z,9.18
2023-04-02T04:29:46.698Z,9.20
2023-04-02T04:32:35.298Z,9.18
2023-04-02T04:35:27.346Z,9.22
2023-04-02T04:38:07.772Z,9.22
2023-04-02T04:40:42.392Z,9.16
2023-04-02T04:43:26.257Z,9.22
2023-04-02T04:46:03.660Z,9.21
2023-04-02T04:48:39.090Z,9.22
2023-04-02T04:51:17.978Z,9.19
2023-04-02T04:53:51.165Z,9.18
2023-04-02T04:56:26.000Z,9.17
2023-04-02T04:59:05.246Z,9.15
2023-04-02T05:02:02.232Z,9.12
2023-04-02T05:04:37.400Z,9.10
2023-04-02T05:07:16.695Z,9.08
2023-04-02T05:09:52.136Z,9.07
2023-04-02T05:12:43.916Z,9.07
2023-04-02T05:15:33.972Z,9.14
2023-04-02T05:18:31.090Z,9.21
2023-04-02T05:20:58.115Z,9.26
2023-04-02T05:23:30.789Z,9.29
2023-04-02T05:26:17.958Z,9.34
2023-04-02T05:29:06.576Z,9.37
2023-04-02T05:31:43.454Z,9.36
2023-04-02T05:34:12.615Z,9.47
2023-04-02T05:36:39.837Z,9.49
2023-04-02T05:39:11.291Z,9.54
2023-04-02T05:41:48.033Z,9.65
2023-04-02T05:44:38.598Z,9.70
2023-04-02T05:47:18.868Z,9.81
2023-04-02T05:50:20.760Z,9.88
2023-04-02T05:52:57.044Z,9.96
2023-04-02T05:55:42.248Z,10.04
2023-04-02T06:01:13.506Z,10.13
2023-04-02T06:03:59.691Z,10.14
2023-04-02T06:06:43.904Z,10.21
2023-04-02T06:09:35.226Z,10.21
2023-04-02T06:12:15.083Z,10.27
2023-04-02T06:14:43.085Z,10.32
2023-04-02T06:17:15.717Z,10.36
2023-04-02T06:19:42.903Z,10.35
2023-04-02T06:22:30.943Z,10.39
2023-04-02T06:25:05.035Z,10.40
2023-04-02T06:27:40.840Z,10.47
2023-04-02T06:30:42.824Z,10.48
2023-04-02T06:33:15.582Z,10.43
2023-04-02T06:35:47.576Z,10.45
2023-04-02T06:38:29.548Z,10.45
2023-04-02T06:41:00.010Z,10.43
2023-04-02T06:44:00.066Z,10.50
2023-04-02T06:47:17.626Z,10.56
2023-04-02T06:50:22.406Z,10.64
2023-04-02T06:53:09.708Z,10.62
2023-04-02T06:56:05.266Z,10.71
2023-04-02T06:58:34.066Z,10.70
2023-04-02T07:01:02.094Z,10.65
2023-04-02T07:03:41.170Z,10.76
2023-04-02T07:06:20.846Z,10.78
2023-04-02T07:08:50.074Z,10.82
2023-04-02T07:11:21.365Z,10.90
2023-04-02T07:13:51.051Z,10.96
2023-04-02T07:16:21.152Z,10.99
2023-04-02T07:18:49.328Z,11.04
2023-04-02T07:21:16.479Z,11.07
2023-04-02T07:23:49.761Z,11.09
2023-04-02T07:26:22.876Z,11.18
2023-04-02T07:28:50.127Z,11.17
2023-04-02T07:31:17.517Z,11.10
2023-04-02T07:33:45.433Z,11.21
2023-04-02T07:36:17.730Z,11.24
2023-04-02T07:38:44.558Z,11.26
2023-04-02T07:41:11.934Z,11.36
2023-04-02T07:43:39.414Z,11.39
2023-04-02T07:46:07.451Z,11.35
2023-04-02T07:48:34.395Z,11.38
2023-04-02T07:51:03.328Z,11.44
2023-04-02T07:53:38.785Z,11.37
2023-04-02T07:56:08.141Z,11.49
2023-04-02T07:58:35.666Z,11.54
2023-04-02T08:01:03.920Z,11.65
2023-04-02T08:03:31.375Z,11.63
2023-04-02T08:05:58.920Z,11.73
2023-04-02T08:08:26.081Z,11.75
2023-04-02T08:10:53.096Z,11.85
2023-04-02T08:13:20.499Z,11.83
2023-04-02T08:15:47.238Z,11.94
2023-04-02T08:18:14.078Z,11.92
2023-04-02T08:20:40.927Z,11.87
2023-04-02T08:23:15.588Z,11.93
2023-04-02T08:25:42.580Z,11.92
2023-04-02T08:28:09.365Z,12.01
2023-04-02T08:30:36.612Z,11.95
2023-04-02T08:33:04.563Z,11.85
2023-04-02T08:35:31.796Z,11.68
2023-04-02T08:37:59.201Z,11.79
2023-04-02T08:40:48.918Z,11.89
2023-04-02T08:43:31.065Z,11.95
2023-04-02T08:46:07.781Z,12.03
2023-04-02T08:48:37.827Z,12.39
2023-04-02T08:51:06.593Z,12.78
2023-04-02T08:53:39.273Z,12.93
2023-04-02T08:56:19.083Z,13.19
2023-04-02T08:58:54.476Z,13.16
2023-04-02T09:01:27.170Z,13.22
2023-04-02T09:03:58.321Z,13.38
2023-04-02T09:06:26.281Z,13.13
2023-04-02T09:08:53.770Z,13.07
2023-04-02T09:11:23.870Z,12.96
2023-04-02T09:14:03.398Z,12.81
2023-04-02T09:16:44.171Z,12.81
2023-04-02T09:19:25.449Z,12.82
2023-04-02T09:22:23.234Z,12.68
2023-04-02T09:24:53.659Z,12.83
2023-04-02T09:27:23.089Z,12.90
2023-04-02T09:29:55.642Z,13.03
2023-04-02T09:32:48.132Z,12.98
2023-04-02T09:35:39.718Z,13.12
2023-04-02T09:38:22.116Z,13.02
2023-04-02T09:41:22.508Z,12.85
2023-04-02T09:43:49.402Z,12.85
2023-04-02T09:46:24.606Z,13.03
2023-04-02T09:49:01.144Z,13.12
2023-04-02T09:51:34.690Z,13.21
2023-04-02T09:54:04.492Z,13.30
2023-04-02T09:56:52.568Z,13.29
2023-04-02T09:59:23.076Z,13.20
2023-04-02T10:01:55.929Z,13.22
2023-04-02T10:04:49.591Z,13.11
2023-04-02T10:07:43.859Z,13.18
2023-04-02T10:10:31.679Z,13.23
2023-04-02T10:13:07.065Z,13.28
2023-04-02T10:15:43.691Z,13.24
2023-04-02T10:18:21.621Z,13.37
2023-04-02T10:20:52.764Z,13.41
2023-04-02T10:23:19.881Z,13.47
2023-04-02T10:25:55.710Z,13.52
2023-04-02T10:28:55.713Z,13.57
2023-04-02T10:31:33.913Z,13.36
2023-04-02T10:34:06.441Z,13.45
2023-04-02T10:36:54.928Z,13.40
2023-04-02T10:39:45.503Z,13.36
2023-04-02T10:42:35.380Z,13.22
2023-04-02T10:45:11.332Z,13.38
2023-04-02T10:47:46.510Z,13.39
2023-04-02T10:50:33.951Z,13.55
2023-04-02T10:53:17.047Z,13.72
2023-04-02T10:55:48.607Z,13.75
2023-04-02T10:58:24.612Z,14.00
2023-04-02T11:00:56.856Z,14.14
2023-04-02T11:03:37.469Z,14.09
2023-04-02T11:06:17.394Z,14.34
2023-04-02T11:08:45.922Z,14.34
2023-04-02T11:11:22.654Z,14.29
2023-04-02T11:13:56.945Z,14.49
2023-04-02T11:16:24.874Z,14.35
2023-04-02T11:19:23.056Z,14.16
2023-04-02T11:22:06.058Z,14.09
2023-04-02T11:24:39.030Z,14.04
2023-04-02T11:27:10.032Z,13.98
2023-04-02T11:29:58.276Z,13.69
2023-04-02T11:32:34.838Z,13.58
2023-04-02T11:35:26.778Z,13.43
2023-04-02T11:37:58.937Z,13.32
2023-04-02T11:40:59.035Z,13.59
2023-04-02T11:43:35.345Z,13.79
2023-04-02T11:46:24.877Z,13.91
2023-04-02T11:48:51.847Z,14.02
2023-04-02T11:51:22.582Z,13.96
2023-04-02T11:53:51.667Z,14.19
2023-04-02T11:57:00.450Z,14.71
2023-04-02T11:59:48.028Z,14.75
2023-04-02T12:02:44.507Z,14.58
2023-04-02T12:05:17.667Z,14.42
2023-04-02T12:08:15.363Z,14.26
2023-04-02T12:11:00.650Z,14.06
2023-04-02T12:13:39.599Z,13.79
2023-04-02T12:16:16.979Z,13.74
2023-04-02T12:18:46.842Z,13.62
2023-04-02T12:21:17.522Z,13.58
2023-04-02T12:23:47.421Z,13.45
2023-04-02T12:26:37.499Z,13.37
2023-04-02T12:29:33.995Z,13.37
2023-04-02T12:32:01.058Z,13.23
2023-04-02T12:34:29.730Z,13.34
2023-04-02T12:37:05.568Z,13.45
2023-04-02T12:39:34.008Z,13.56
2023-04-02T12:42:01.210Z,13.45
2023-04-02T12:44:29.967Z,13.37
2023-04-02T12:46:59.109Z,13.56
2023-04-02T12:49:33.614Z,13.69
2023-04-02T12:52:04.672Z,13.68
2023-04-02T12:54:38.316Z,13.66
2023-04-02T12:57:40.753Z,13.77
2023-04-02T13:00:20.040Z,13.88
2023-04-02T13:03:06.232Z,13.95
2023-04-02T13:05:36.197Z,14.11
2023-04-02T13:08:04.102Z,14.06
2023-04-02T13:10:31.249Z,13.93
2023-04-02T13:13:03.337Z,13.85
2023-04-02T13:15:36.632Z,13.79
2023-04-02T13:18:23.181Z,13.66
2023-04-02T13:21:03.138Z,13.75
2023-04-02T13:23:30.004Z,13.54
2023-04-02T13:25:59.485Z,13.53
2023-04-02T13:28:26.457Z,13.32
2023-04-02T13:30:53.215Z,13.32
2023-04-02T13:33:20.527Z,13.16
2023-04-02T13:35:47.293Z,13.21
2023-04-02T13:38:14.028Z,13.20
2023-04-02T13:40:41.562Z,13.15
2023-04-02T13:43:16.927Z,13.12
2023-04-02T13:45:51.137Z,13.23
2023-04-02T13:48:18.470Z,13.14
2023-04-02T13:50:46.584Z,13.03
2023-04-02T13:53:24.891Z,12.91
2023-04-02T13:55:52.659Z,12.79
2023-04-02T13:58:19.695Z,12.69
2023-04-02T14:00:47.652Z,12.69
2023-04-02T14:03:19.294Z,12.90
2023-04-02T14:05:52.115Z,13.03
2023-04-02T14:08:21.980Z,13.08
2023-04-02T14:10:55.087Z,13.20
2023-04-02T14:13:45.094Z,13.25
2023-04-02T14:16:42.304Z,13.20
2023-04-02T14:19:15.843Z,13.27
2023-04-02T14:22:27.380Z,13.25
2023-04-02T14:25:08.561Z,13.27
2023-04-02T14:27:46.415Z,13.17
2023-04-02T14:30:34.581Z,13.14
2023-04-02T14:33:09.036Z,13.04
2023-04-02T14:35:38.452Z,12.90
2023-04-02T14:38:20.181Z,12.82
2023-04-02T14:40:54.767Z,12.77
2023-04-02T14:43:40.958Z,12.90
2023-04-02T14:46:10.509Z,13.02
2023-04-02T14:49:02.060Z,13.09
2023-04-02T14:51:40.947Z,13.08
2023-04-02T14:54:40.086Z,13.12
2023-04-02T14:57:18.863Z,13.20
2023-04-02T14:59:52.207Z,13.41
2023-04-02T15:02:28.059Z,13.46
2023-04-02T15:05:03.606Z,13.44
2023-04-02T15:07:41.736Z,13.23
2023-04-02T15:10:40.940Z,13.12
2023-04-02T15:13:20.892Z,12.88
2023-04-02T15:16:10.230Z,12.61
2023-04-02T15:18:38.303Z,12.54
2023-04-02T15:21:20.461Z,12.37
2023-04-02T15:24:02.420Z,12.35
2023-04-02T15:26:52.956Z,12.25
2023-04-02T15:29:58.657Z,12.12
2023-04-02T15:32:34.728Z,12.04
2023-04-02T15:35:16.936Z,11.88
2023-04-02T15:38:11.750Z,11.78
2023-04-02T15:40:43.607Z,11.66
2023-04-02T15:43:16.238Z,11.66
2023-04-02T15:45:58.138Z,11.63
2023-04-02T15:48:49.435Z,11.59
2023-04-02T15:51:34.733Z,11.66
2023-04-02T15:54:22.590Z,11.61
2023-04-02T15:57:21.099Z,11.58
2023-04-02T16:00:09.723Z,11.57
2023-04-02T16:03:17.359Z,11.62
2023-04-02T16:06:26.493Z,11.58
2023-04-02T16:09:02.175Z,11.57
2023-04-02T16:11:29.406Z,11.56
2023-04-02T16:14:32.215Z,11.41
2023-04-02T16:17:17.492Z,11.38
2023-04-02T16:20:06.936Z,11.32
2023-04-02T16:22:36.217Z,11.24
2023-04-02T16:25:19.481Z,11.17
2023-04-02T16:27:57.818Z,11.00
2023-04-02T16:30:55.313Z,10.91
2023-04-02T16:33:39.700Z,10.87
2023-04-02T16:36:18.602Z,10.78
2023-04-02T16:39:03.511Z,10.73
2023-04-02T16:41:55.032Z,10.74
2023-04-02T16:44:30.924Z,10.62
2023-04-02T16:47:22.394Z,10.47
2023-04-02T16:50:03.656Z,10.36
2023-04-02T16:52:45.311Z,10.41
2023-04-02T16:56:00.458Z,10.30
2023-04-02T16:58:45.930Z,10.22
2023-04-02T17:01:18.548Z,10.15
2023-04-02T17:03:57.856Z,10.13
2023-04-02T17:06:42.384Z,9.91
2023-04-02T17:09:16.904Z,9.85
2023-04-02T17:11:52.689Z,9.71
2023-04-02T17:14:26.417Z,9.62
2023-04-02T17:17:02.335Z,9.68
2023-04-02T17:19:31.249Z,9.72
2023-04-02T17:22:01.943Z,9.58
2023-04-02T17:24:44.404Z,9.52
2023-04-02T17:27:25.684Z,9.62
2023-04-02T17:29:58.758Z,9.63
2023-04-02T17:32:32.562Z,9.60
2023-04-02T17:35:32.267Z,9.58
2023-04-02T17:38:07.630Z,9.60
2023-04-02T17:40:50.237Z,9.53
2023-04-02T17:43:51.733Z,9.49
2023-04-02T17:46:21.519Z,9.44
2023-04-02T17:48:59.336Z,9.45
2023-04-02T17:51:30.564Z,9.41
2023-04-02T17:54:39.000Z,9.33
2023-04-02T17:57:51.142Z,9.27
2023-04-02T18:00:55.927Z,9.27
2023-04-02T18:03:38.804Z,9.15
2023-04-02T18:06:16.222Z,9.24
2023-04-02T18:08:46.030Z,9.27
2023-04-02T18:11:34.155Z,9.21
2023-04-02T18:14:28.750Z,9.19
2023-04-02T18:17:17.257Z,9.08
2023-04-02T18:20:21.560Z,9.10
2023-04-02T18:23:16.152Z,9.05
2023-04-02T18:25:55.368Z,9.11
2023-04-02T18:28:22.236Z,9.05
2023-04-02T18:30:52.040Z,8.96
2023-04-02T18:33:37.813Z,8.95
2023-04-02T18:36:26.456Z,8.87
2023-04-02T18:39:18.605Z,8.76
2023-04-02T18:41:54.564Z,8.86
2023-04-02T18:44:38.803Z,8.79
2023-04-02T18:47:29.179Z,8.68
2023-04-02T18:50:22.250Z,8.72
2023-04-02T18:52:50.804Z,8.71
2023-04-02T18:55:32.131Z,8.66
2023-04-02T18:58:06.402Z,8.63
2023-04-02T19:00:38.243Z,8.70
2023-04-02T19:03:11.770Z,8.48
2023-04-02T19:05:41.532Z,8.45
2023-04-02T19:08:18.234Z,8.35
2023-04-02T19:10:49.276Z,8.30
2023-04-02T19:13:18.250Z,8.35
2023-04-02T19:15:54.503Z,8.19
2023-04-02T19:18:36.024Z,7.97
2023-04-02T19:21:36.526Z,7.89
2023-04-02T19:24:28.281Z,7.63
2023-04-02T19:27:20.434Z,7.58
2023-04-02T19:30:10.233Z,7.49
2023-04-02T19:32:58.370Z,7.36
2023-04-02T19:35:54.096Z,7.25
2023-04-02T19:38:31.140Z,7.30
2023-04-02T19:41:14.819Z,7.26
2023-04-02T19:43:41.764Z,7.31
2023-04-02T19:46:08.608Z,7.27
2023-04-02T19:49:13.361Z,7.24
2023-04-02T19:51:40.144Z,7.29
2023-04-02T19:54:06.847Z,7.20
2023-04-02T19:56:33.748Z,7.24
2023-04-02T19:59:07.725Z,7.05
2023-04-02T20:01:43.856Z,7.07
2023-04-02T20:04:10.646Z,6.88
2023-04-02T20:06:37.674Z,6.94
2023-04-02T20:09:04.451Z,6.84
2023-04-02T20:11:31.305Z,6.84
2023-04-02T20:13:58.079Z,6.79
2023-04-02T20:16:24.906Z,6.83
2023-04-02T20:18:51.858Z,6.78
2023-04-02T20:21:19.014Z,6.72
2023-04-02T20:23:46.064Z,6.77
2023-04-02T20:26:13.274Z,6.71
2023-04-02T20:28:40.125Z,6.80
2023-04-02T20:31:16.102Z,6.63
2023-04-02T20:33:44.512Z,6.65
2023-04-02T20:36:14.003Z,6.70
2023-04-02T20:38:40.849Z,6.67
2023-04-02T20:41:08.362Z,6.64
2023-04-02T20:43:36.511Z,6.55
2023-04-02T20:46:05.704Z,6.50
2023-04-02T20:48:34.103Z,6.60
2023-04-02T20:51:02.822Z,6.55
2023-04-02T20:53:31.156Z,6.55
2023-04-02T20:56:10.919Z,6.58
2023-04-02T20:58:38.894Z,6.56
2023-04-02T21:01:11.966Z,6.59
2023-04-02T21:03:40.093Z,6.63
2023-04-02T21:06:13.245Z,6.71
2023-04-02T21:08:40.819Z,6.64
2023-04-02T21:11:08.562Z,6.60
2023-04-02T21:13:36.499Z,6.57
2023-04-02T21:16:13.872Z,6.51
2023-04-02T21:18:40.800Z,6.41
2023-04-02T21:21:07.880Z,6.43
2023-04-02T21:23:34.790Z,6.39
2023-04-02T21:26:05.029Z,6.37
2023-04-02T21:28:33.231Z,6.28
2023-04-02T21:31:04.000Z,6.23
2023-04-02T21:33:35.241Z,6.25
2023-04-02T21:36:11.346Z,6.12
2023-04-02T21:38:43.018Z,6.03
2023-04-02T21:41:16.133Z,6.15
2023-04-02T21:43:43.417Z,6.19
2023-04-02T21:46:10.648Z,6.20
2023-04-02T21:48:37.627Z,6.19
2023-04-02T21:51:09.472Z,6.23
2023-04-02T21:53:36.517Z,6.10
2023-04-02T21:56:05.927Z,6.16
2023-04-02T21:58:32.972Z,6.05
2023-04-02T22:01:00.711Z,6.05
2023-04-02T22:03:31.691Z,6.02
2023-04-02T22:06:11.529Z,6.00
2023-04-02T22:08:39.806Z,5.89
2023-04-02T22:11:18.599Z,6.02
2023-04-02T22:13:47.189Z,5.99
2023-04-02T22:16:16.390Z,5.89
2023-04-02T22:18:44.305Z,5.96
2023-04-02T22:21:11.708Z,5.91
2023-04-02T22:23:39.330Z,5.85
2023-04-02T22:26:07.474Z,5.73
2023-04-02T22:28:34.713Z,5.81
2023-04-02T22:31:11.641Z,5.76
2023-04-02T22:33:38.985Z,5.80
2023-04-02T22:36:06.694Z,5.78
2023-04-02T22:38:34.459Z,5.71
2023-04-02T22:41:13.780Z,5.67
2023-04-02T22:43:41.533Z,5.74
2023-04-02T22:46:09.517Z,5.68
2023-04-02T22:48:39.473Z,5.68
2023-04-02T22:51:07.922Z,5.75
2023-04-02T22:53:36.599Z,5.59
2023-04-02T22:56:06.639Z,5.52
2023-04-02T22:58:33.814Z,5.63
2023-04-02T23:01:23.128Z,5.56
2023-04-02T23:03:50.166Z,5.58
2023-04-02T23:06:18.467Z,5.63
2023-04-02T23:08:46.719Z,5.68
2023-04-02T23:11:16.637Z,5.63
2023-04-02T23:13:47.469Z,5.73
2023-04-02T23:16:15.519Z,5.79
2023-04-02T23:18:43.565Z,5.70
2023-04-02T23:21:10.460Z,5.77
2023-04-02T23:23:37.532Z,5.85
2023-04-02T23:26:14.893Z,5.84
2023-04-02T23:28:42.512Z,5.79
2023-04-02T23:31:13.898Z,5.88
2023-04-02T23:33:40.966Z,5.92
2023-04-02T23:36:10.216Z,5.96
2023-04-02T23:38:37.210Z,5.94
2023-04-02T23:41:04.125Z,5.82
2023-04-02T23:43:31.285Z,5.89
2023-04-02T23:45:58.264Z,5.94
2023-04-02T23:48:25.211Z,5.84
2023-04-02T23:50:51.955Z,5.93
2023-04-02T23:53:19.014Z,5.77
2023-04-02T23:55:46.024Z,5.78
2023-04-02T23:58:13.138Z,5.72
